Graham, North Carolina
Current Conditions -  °F | °C
As of 6:54 PM on Wednesday 26 Nov 2014 (Local Time) from KBUY Reporting Station
Overcast Overcast  
Wind Chill: 41°   Ceiling: 3200
Heat Index: 41°   Visibility: 10mi
Dew Point: 38°   Wind: 3mph
Humidity: 89%   Direction: 190°S
Pressure: 30.03"   Gusts: NA
Location:  36.07°N, 79.4°W
Report Text: KBUY 262354Z AUTO 19003KT 10SM OVC032 05/03 A3003 RMK AO2 SLP170 60001 T00500033 10067 20044 53013
Loading
Personal Weather Stations






























Interactive Weather Map New forecast layout! Learn more

10-Day Weather Forecast

Advertisements
Track Severe Weather on mobile